Time;durP1;ratioP1;P1;durP2;ratioP2;P2;SDS_P1;SDS_P2;PMS_P1;PMS_P2;Temp;Humidity;BMP_temperature;BMP_pressure;BME280_temperature;BME280_humidity;BME280_pressure;Samples;Min_cycle;Max_cycle;Signal;HPM_P1;HPM_P2
2024/02/04 00:01:47;;;;;;;8.50;2.80;;;;;;;6.59;79.83;99435.20;102087;1273;97832;-73
2024/02/04 00:04:14;;;;;;;7.20;2.70;;;;;;;6.58;79.95;99435.59;102041;1273;110795;-73
2024/02/04 00:06:41;;;;;;;15.60;3.30;;;;;;;6.56;79.69;99442.02;101950;1270;137895;-72
2024/02/04 00:09:09;;;;;;;9.80;3.00;;;;;;;6.54;79.35;99436.73;102199;1273;99528;-74
2024/02/04 00:11:35;;;;;;;8.30;2.20;;;;;;;6.50;79.39;99440.48;101907;1269;137592;-72
2024/02/04 00:14:03;;;;;;;8.80;2.80;;;;;;;6.46;79.33;99431.27;102089;1269;98483;-73
2024/02/04 00:16:30;;;;;;;7.20;2.70;;;;;;;6.47;79.23;99442.13;102014;1271;111715;-73
2024/02/04 00:18:57;;;;;;;8.90;2.60;;;;;;;6.47;79.24;99433.49;101911;1273;138094;-75
2024/02/04 00:21:24;;;;;;;7.70;2.70;;;;;;;6.51;79.28;99434.92;102076;1270;97985;-81
2024/02/04 00:23:51;;;;;;;11.90;3.10;;;;;;;6.50;78.96;99425.80;102042;1273;137383;-76
2024/02/04 00:26:18;;;;;;;11.80;3.10;;;;;;;6.48;79.21;99418.44;102111;1273;97838;-80
2024/02/04 00:28:45;;;;;;;12.70;3.20;;;;;;;6.46;79.37;99419.17;102130;1270;110222;-72
2024/02/04 00:31:12;;;;;;;8.50;3.00;;;;;;;6.43;79.38;99418.04;101938;1273;137748;-77
2024/02/04 00:33:39;;;;;;;10.00;3.10;;;;;;;6.39;79.50;99414.02;102075;1270;96848;-78
2024/02/04 00:36:07;;;;;;;10.80;2.90;;;;;;;6.40;79.44;99417.98;102086;1274;138716;-77
2024/02/04 00:38:33;;;;;;;9.90;3.10;;;;;;;6.37;79.49;99411.33;102045;1270;97778;-77
2024/02/04 00:41:00;;;;;;;9.40;2.90;;;;;;;6.36;79.39;99418.25;102220;1270;112012;-77
2024/02/04 00:43:27;;;;;;;10.80;3.30;;;;;;;6.35;79.60;99421.05;101829;1273;107023;-73
2024/02/04 00:45:56;;;;;;;7.00;2.40;;;;;;;6.39;81.42;99419.88;101973;1271;97822;-77
2024/02/04 00:48:23;;;;;;;7.90;3.00;;;;;;;6.46;80.64;99420.39;101928;1270;138089;-74
2024/02/04 00:50:50;;;;;;;8.40;2.70;;;;;;;6.47;79.91;99423.84;102130;1271;97749;-75
2024/02/04 00:53:17;;;;;;;6.40;2.60;;;;;;;6.45;79.91;99422.47;102067;1273;139318;-74
2024/02/04 00:55:44;;;;;;;10.70;3.30;;;;;;;6.44;79.75;99418.01;102103;1272;107718;-74
2024/02/04 00:58:11;;;;;;;12.50;3.60;;;;;;;6.41;79.77;99417.60;102124;1272;97873;-75
2024/02/04 01:00:38;;;;;;;11.40;3.30;;;;;;;6.36;79.69;99414.80;101803;1272;138762;-75
2024/02/04 01:03:06;;;;;;;8.50;2.50;;;;;;;6.31;79.89;99420.99;102120;1272;97914;-74
2024/02/04 01:05:33;;;;;;;8.70;2.90;;;;;;;6.29;79.97;99418.98;102014;1270;138657;-75
2024/02/04 01:08:00;;;;;;;7.00;2.30;;;;;;;6.27;80.09;99416.95;102033;1272;106761;-75
2024/02/04 01:10:27;;;;;;;9.90;3.10;;;;;;;6.27;80.46;99426.27;102041;1271;98106;-73
2024/02/04 01:12:54;;;;;;;6.80;2.90;;;;;;;6.26;80.41;99425.62;102025;1273;138487;-75
2024/02/04 01:15:21;;;;;;;8.30;2.60;;;;;;;6.25;80.63;99430.98;102001;1273;97759;-75
2024/02/04 01:17:48;;;;;;;9.00;3.20;;;;;;;6.24;80.94;99431.00;102021;1272;138136;-75
2024/02/04 01:20:15;;;;;;;13.70;3.80;;;;;;;6.26;81.23;99432.50;102023;1270;108292;-74
2024/02/04 01:22:42;;;;;;;8.90;2.80;;;;;;;6.26;81.21;99434.06;102215;1270;98545;-72
2024/02/04 01:25:10;;;;;;;10.20;3.30;;;;;;;6.24;81.40;99434.46;102098;1271;138351;-75
2024/02/04 01:27:37;;;;;;;9.20;3.00;;;;;;;6.26;81.42;99435.63;102099;1275;97868;-74
2024/02/04 01:30:05;;;;;;;6.60;2.90;;;;;;;6.25;81.70;99435.13;102048;1273;138135;-74
2024/02/04 01:32:31;;;;;;;6.30;2.70;;;;;;;6.29;81.82;99437.45;102142;1276;106835;-74
2024/02/04 01:34:58;;;;;;;9.10;3.00;;;;;;;6.32;81.88;99434.08;102216;1273;97869;-74
2024/02/04 01:37:25;;;;;;;8.80;3.10;;;;;;;6.38;81.97;99433.23;101991;1272;137769;-74
2024/02/04 01:39:53;;;;;;;7.30;3.20;;;;;;;6.40;82.16;99429.20;102185;1272;97861;-74
2024/02/04 01:42:20;;;;;;;11.00;3.30;;;;;;;6.42;82.25;99431.04;102077;1272;137400;-76
2024/02/04 01:44:47;;;;;;;10.90;3.60;;;;;;;6.43;82.20;99432.90;102008;1270;105195;-74
2024/02/04 01:47:14;;;;;;;10.50;2.90;;;;;;;6.40;82.37;99430.05;102006;1275;138474;-75
2024/02/04 01:49:41;;;;;;;7.20;2.70;;;;;;;6.39;82.55;99426.79;102154;1273;108959;-75
2024/02/04 01:52:11;;;;;;;11.60;3.50;;;;;;;6.36;82.53;99415.84;102164;1273;97820;-75
2024/02/04 01:54:40;;;;;;;8.30;2.80;;;;;;;6.36;82.80;99410.85;102069;1270;139907;-75
2024/02/04 01:57:10;;;;;;;7.30;3.00;;;;;;;6.36;82.67;99406.34;102663;1270;107359;-76
2024/02/04 01:59:39;;;;;;;10.70;2.80;;;;;;;6.38;82.88;99403.00;102030;1270;139444;-75
2024/02/04 02:02:08;;;;;;;9.40;3.30;;;;;;;6.39;82.80;99395.36;102196;1272;108218;-75
2024/02/04 02:04:35;;;;;;;7.50;2.80;;;;;;;6.40;83.02;99399.68;102031;1273;97883;-72
2024/02/04 02:07:02;;;;;;;12.20;3.20;;;;;;;6.38;82.74;99404.90;101975;1270;137621;-75
2024/02/04 02:09:30;;;;;;;12.60;2.90;;;;;;;6.35;82.96;99411.21;102023;1273;107638;-75
2024/02/04 02:12:08;;;;;;;9.10;2.90;;;;;;;6.31;82.94;99413.21;102048;1273;138836;-75
2024/02/04 02:14:38;;;;;;;9.90;2.90;;;;;;;6.25;82.85;99410.63;102092;1270;108221;-75
2024/02/04 02:17:17;;;;;;;11.90;3.00;;;;;;;6.24;82.92;99404.95;102001;1275;97871;-76
2024/02/04 02:19:52;;;;;;;11.00;2.50;;;;;;;6.21;83.02;99400.89;101987;1273;111481;-76
2024/02/04 02:22:29;;;;;;;7.20;2.80;;;;;;;6.22;83.12;99396.39;102083;1274;108850;-77
2024/02/04 02:24:59;;;;;;;9.10;2.80;;;;;;;6.21;83.01;99389.68;102046;1273;138873;-75
2024/02/04 02:27:27;;;;;;;10.70;3.30;;;;;;;6.21;83.19;99387.95;102352;1273;107915;-76
2024/02/04 02:29:54;;;;;;;12.10;3.20;;;;;;;6.20;83.15;99391.27;102065;1275;138026;-76
2024/02/04 02:32:21;;;;;;;9.30;2.80;;;;;;;6.18;83.25;99391.48;102096;1273;110838;-75
2024/02/04 02:34:48;;;;;;;11.90;3.00;;;;;;;6.17;83.29;99395.33;102035;1273;107955;-74
2024/02/04 02:37:28;;;;;;;9.80;3.00;;;;;;;6.16;83.37;99393.80;101851;1275;138334;-75
2024/02/04 02:40:01;;;;;;;7.50;2.80;;;;;;;6.13;83.46;99386.48;102109;1273;107168;-76
2024/02/04 02:42:29;;;;;;;9.60;2.70;;;;;;;6.13;83.50;99391.64;101930;1273;138284;-75
2024/02/04 02:44:56;;;;;;;7.90;2.90;;;;;;;6.14;83.66;99396.63;102058;1273;110389;-74
2024/02/04 02:47:26;;;;;;;10.00;2.60;;;;;;;6.12;83.55;99402.37;101941;1272;138392;-75
2024/02/04 02:49:54;;;;;;;10.10;2.80;;;;;;;6.15;83.58;99411.27;101973;1273;97841;-75
2024/02/04 02:52:21;;;;;;;7.10;3.00;;;;;;;6.15;83.61;99411.24;102027;1273;106942;-75
2024/02/04 02:54:48;;;;;;;7.20;2.60;;;;;;;6.17;83.50;99412.05;102065;1270;138100;-76
2024/02/04 02:57:15;;;;;;;9.10;2.90;;;;;;;6.19;83.71;99407.01;102099;1273;111994;-75
2024/02/04 02:59:42;;;;;;;9.30;2.80;;;;;;;6.20;83.63;99409.21;102012;1273;138320;-75
2024/02/04 03:02:11;;;;;;;10.30;2.90;;;;;;;6.19;83.61;99407.17;101974;1267;121815;-75
2024/02/04 03:04:39;;;;;;;10.10;2.90;;;;;;;6.20;83.69;99400.06;103627;1267;106255;-74
2024/02/04 03:07:07;;;;;;;10.20;2.70;;;;;;;6.20;83.75;99399.71;103718;1267;138834;-75
2024/02/04 03:09:34;;;;;;;10.20;2.60;;;;;;;6.20;83.63;99401.44;103855;1267;111257;-74
2024/02/04 03:12:01;;;;;;;5.10;2.50;;;;;;;6.20;83.56;99393.33;102488;1270;138388;-74
2024/02/04 03:14:28;;;;;;;4.80;2.10;;;;;;;6.21;83.44;99390.89;102383;1267;97872;-75
2024/02/04 03:16:55;;;;;;;7.20;2.80;;;;;;;6.23;83.46;99391.86;102322;1270;107983;-75
2024/02/04 03:19:22;;;;;;;6.40;2.20;;;;;;;6.27;83.32;99400.38;102062;1267;138712;-74
2024/02/04 03:21:50;;;;;;;6.60;2.30;;;;;;;6.31;83.03;99399.94;102405;1267;110020;-74
2024/02/04 03:24:17;;;;;;;7.00;2.40;;;;;;;6.37;82.96;99395.11;102236;1267;138060;-75
2024/02/04 03:26:45;;;;;;;8.60;2.50;;;;;;;6.42;82.74;99400.13;102420;1266;98287;-75
2024/02/04 03:29:11;;;;;;;8.70;2.30;;;;;;;6.46;82.20;99399.84;102237;1270;137546;-75
2024/02/04 03:31:38;;;;;;;10.10;2.90;;;;;;;6.48;81.51;99406.54;102419;1272;97940;-75
2024/02/04 03:34:05;;;;;;;8.50;2.50;;;;;;;6.48;81.46;99409.48;102446;1268;110382;-76
2024/02/04 03:36:33;;;;;;;9.70;2.10;;;;;;;6.48;80.59;99408.27;102296;1267;137637;-75
2024/02/04 03:38:59;;;;;;;11.30;2.80;;;;;;;6.45;79.55;99404.69;102260;1267;97851;-75
2024/02/04 03:41:27;;;;;;;7.80;2.90;;;;;;;6.43;79.69;99411.32;102224;1267;138422;-75
2024/02/04 03:43:55;;;;;;;9.10;2.40;;;;;;;6.41;79.38;99406.89;102473;1267;97846;-75
2024/02/04 03:46:22;;;;;;;7.80;2.40;;;;;;;6.40;78.54;99398.64;102406;1267;111718;-74
2024/02/04 03:48:49;;;;;;;8.10;1.80;;;;;;;6.38;78.05;99395.23;102294;1266;138448;-75
2024/02/04 03:51:20;;;;;;;8.80;2.30;;;;;;;6.38;78.23;99399.72;102338;1267;97815;-75
2024/02/04 03:53:48;;;;;;;7.50;2.40;;;;;;;6.42;78.11;99405.13;102342;1267;140643;-76
2024/02/04 03:56:15;;;;;;;6.80;2.40;;;;;;;6.44;77.50;99411.27;102318;1273;97858;-75
2024/02/04 03:58:42;;;;;;;11.50;2.60;;;;;;;6.44;77.17;99417.16;102270;1267;111596;-75
2024/02/04 04:01:12;;;;;;;7.40;2.80;;;;;;;6.45;77.35;99421.27;102156;1273;137916;-75
2024/02/04 04:03:41;;;;;;;11.20;2.90;;;;;;;6.45;77.20;99416.43;102393;1267;97841;-74
2024/02/04 04:06:09;;;;;;;6.40;2.20;;;;;;;6.44;77.30;99411.11;102247;1267;137371;-74
2024/02/04 04:08:36;;;;;;;11.70;2.40;;;;;;;6.43;77.07;99415.13;102366;1273;97902;-74
2024/02/04 04:11:04;;;;;;;11.20;2.50;;;;;;;6.40;77.16;99415.73;102394;1272;111802;-76
2024/02/04 04:13:32;;;;;;;12.10;2.80;;;;;;;6.38;77.07;99423.58;102220;1267;138305;-75
2024/02/04 04:15:58;;;;;;;11.40;2.90;;;;;;;6.36;77.18;99430.86;102383;1267;98463;-75
2024/02/04 04:18:26;;;;;;;10.70;2.70;;;;;;;6.35;77.30;99424.67;102215;1272;138088;-75
2024/02/04 04:20:52;;;;;;;6.70;2.30;;;;;;;6.34;77.27;99422.10;102450;1267;97875;-75
2024/02/04 04:23:19;;;;;;;10.30;2.40;;;;;;;6.35;77.26;99427.27;102337;1273;138069;-74
2024/02/04 04:25:46;;;;;;;6.50;2.00;;;;;;;6.36;77.43;99431.04;102439;1267;107859;-74
2024/02/04 04:28:13;;;;;;;9.60;2.50;;;;;;;6.38;77.40;99437.70;102401;1267;97720;-73
2024/02/04 04:30:40;;;;;;;7.70;2.40;;;;;;;6.40;77.35;99438.33;102193;1268;138994;-74
2024/02/04 04:33:08;;;;;;;9.80;2.70;;;;;;;6.41;76.61;99442.81;102361;1267;97811;-74
2024/02/04 04:35:35;;;;;;;6.00;1.70;;;;;;;6.39;75.08;99434.05;102285;1268;137816;-75
2024/02/04 04:38:02;;;;;;;8.20;2.00;;;;;;;6.30;73.26;99437.59;102312;1273;106453;-75
2024/02/04 04:40:28;;;;;;;8.10;1.60;;;;;;;6.21;73.34;99437.16;102388;1267;98353;-73
2024/02/04 04:42:55;;;;;;;5.80;1.70;;;;;;;6.12;73.23;99441.72;102272;1271;138052;-74
2024/02/04 04:45:22;;;;;;;7.30;1.50;;;;;;;6.01;73.56;99437.50;102357;1273;97802;-75
2024/02/04 04:47:49;;;;;;;7.90;1.90;;;;;;;5.96;73.94;99442.30;102208;1267;138181;-75
2024/02/04 04:50:17;;;;;;;7.40;1.60;;;;;;;5.89;74.17;99444.36;102323;1272;107796;-77
2024/02/04 04:52:44;;;;;;;4.10;1.50;;;;;;;5.82;74.75;99451.79;102374;1272;98328;-74
2024/02/04 04:55:12;;;;;;;5.40;2.10;;;;;;;5.76;75.08;99449.52;102231;1269;138475;-74
2024/02/04 04:57:39;;;;;;;8.60;2.20;;;;;;;5.69;75.51;99451.41;102398;1272;97694;-75
2024/02/04 05:00:12;;;;;;;8.90;1.80;;;;;;;5.66;75.81;99459.94;102313;1267;138190;-75
2024/02/04 05:02:38;;;;;;;8.70;1.90;;;;;;;5.63;75.98;99464.33;102267;1271;108478;-75
2024/02/04 05:05:06;;;;;;;8.50;2.00;;;;;;;5.60;76.20;99465.29;102355;1267;97726;-75
2024/02/04 05:07:33;;;;;;;11.20;2.40;;;;;;;5.54;76.39;99473.67;102321;1267;107254;-75
2024/02/04 05:10:00;;;;;;;8.10;2.00;;;;;;;5.51;76.46;99473.24;102230;1273;97954;-75
2024/02/04 05:12:27;;;;;;;10.60;2.80;;;;;;;5.46;76.26;99463.02;102238;1267;138119;-75
2024/02/04 05:14:55;;;;;;;12.30;2.70;;;;;;;5.43;76.52;99467.91;102255;1270;106647;-74
2024/02/04 05:17:22;;;;;;;8.30;2.50;;;;;;;5.41;76.49;99469.35;102227;1274;138448;-77
2024/02/04 05:19:49;;;;;;;6.30;2.00;;;;;;;5.36;76.16;99473.94;102295;1267;107906;-75
2024/02/04 05:22:16;;;;;;;7.00;2.20;;;;;;;5.28;76.07;99463.27;102257;1267;97831;-76
2024/02/04 05:24:43;;;;;;;8.60;2.20;;;;;;;5.22;76.31;99475.14;102244;1267;137900;-76
2024/02/04 05:27:10;;;;;;;8.50;2.00;;;;;;;5.18;76.02;99476.42;101592;1267;1002543;-76
2024/02/04 05:29:38;;;;;;;10.10;2.20;;;;;;;5.15;75.83;99469.24;102175;1267;138611;-76
2024/02/04 05:32:05;;;;;;;6.40;2.00;;;;;;;5.14;75.50;99465.30;102365;1268;107532;-75
2024/02/04 05:34:34;;;;;;;7.40;1.90;;;;;;;5.14;75.31;99468.74;102360;1267;97921;-76
2024/02/04 05:37:01;;;;;;;10.30;2.50;;;;;;;5.14;75.10;99470.66;102226;1267;138569;-75
2024/02/04 05:39:28;;;;;;;5.60;2.30;;;;;;;5.14;75.37;99475.98;102296;1267;107905;-75
2024/02/04 05:41:55;;;;;;;10.90;2.40;;;;;;;5.14;75.40;99476.00;102230;1272;138560;-74
2024/02/04 05:44:21;;;;;;;9.10;2.30;;;;;;;5.13;75.39;99478.09;102298;1268;107268;-75
2024/02/04 05:46:49;;;;;;;7.10;2.20;;;;;;;5.13;75.44;99477.58;101631;1267;1002699;-74
2024/02/04 05:49:16;;;;;;;5.60;1.90;;;;;;;5.15;75.65;99478.56;102346;1273;138935;-76
2024/02/04 05:51:47;;;;;;;8.60;2.10;;;;;;;5.19;75.93;99476.91;102330;1267;106880;-76
2024/02/04 05:54:14;;;;;;;6.30;2.20;;;;;;;5.24;75.91;99476.64;102247;1267;139300;-73
2024/02/04 05:56:41;;;;;;;5.40;2.30;;;;;;;5.29;75.92;99477.73;102325;1267;107816;-74
2024/02/04 05:59:08;;;;;;;9.90;2.70;;;;;;;5.31;76.07;99477.48;102281;1272;97838;-73
2024/02/04 06:01:34;;;;;;;7.70;2.50;;;;;;;5.32;75.81;99473.35;102264;1269;111978;-75
2024/02/04 06:04:02;;;;;;;11.40;2.70;;;;;;;5.31;75.85;99465.08;102231;1270;107503;-75
2024/02/04 06:06:29;;;;;;;9.90;2.70;;;;;;;5.30;75.93;99466.84;102248;1273;137845;-75
2024/02/04 06:08:55;;;;;;;13.20;2.80;;;;;;;5.29;75.78;99452.56;101606;1267;1003086;-75
2024/02/04 06:11:22;;;;;;;12.50;2.90;;;;;;;5.30;75.98;99443.05;102230;1267;138159;-75
2024/02/04 06:13:50;;;;;;;9.40;2.50;;;;;;;5.28;76.15;99444.67;102331;1267;111160;-73
2024/02/04 06:16:16;;;;;;;9.50;2.50;;;;;;;5.26;76.30;99447.98;102310;1267;107621;-75
2024/02/04 06:18:43;;;;;;;10.60;2.50;;;;;;;5.23;76.51;99454.27;102231;1267;138166;-75
2024/02/04 06:21:10;;;;;;;6.70;2.20;;;;;;;5.21;76.70;99458.63;102287;1267;106857;-75
2024/02/04 06:23:39;;;;;;;10.70;2.30;;;;;;;5.20;76.94;99459.65;102242;1267;138487;-75
2024/02/04 06:26:06;;;;;;;11.10;2.70;;;;;;;5.19;76.99;99458.48;102338;1267;112154;-75
2024/02/04 06:28:33;;;;;;;6.10;2.60;;;;;;;5.19;77.30;99452.61;102320;1267;106632;-75
2024/02/04 06:31:00;;;;;;;10.20;2.50;;;;;;;5.17;77.45;99451.10;102287;1267;137544;-75
2024/02/04 06:33:27;;;;;;;8.20;2.60;;;;;;;5.14;77.63;99447.38;102353;1267;108086;-76
2024/02/04 06:35:55;;;;;;;11.10;3.10;;;;;;;5.08;77.79;99450.11;102125;1267;138176;-75
2024/02/04 06:38:22;;;;;;;9.90;2.90;;;;;;;5.03;77.93;99451.10;102318;1272;111305;-75
2024/02/04 06:40:49;;;;;;;10.20;2.60;;;;;;;5.02;78.30;99454.38;102244;1268;107505;-72
2024/02/04 06:43:16;;;;;;;11.70;3.00;;;;;;;5.01;78.31;99460.09;102819;1272;140228;-75
2024/02/04 06:45:44;;;;;;;8.30;2.40;;;;;;;5.03;78.46;99456.80;101616;1271;1002921;-75
2024/02/04 06:48:11;;;;;;;9.10;2.80;;;;;;;5.08;78.69;99460.80;102157;1273;138154;-75
2024/02/04 06:50:38;;;;;;;13.20;3.00;;;;;;;5.12;78.69;99456.05;102358;1267;110802;-75
2024/02/04 06:53:06;;;;;;;9.50;3.10;;;;;;;5.13;78.79;99458.27;102333;1268;107656;-75
2024/02/04 06:55:32;;;;;;;12.70;3.00;;;;;;;5.15;78.74;99458.04;102142;1267;137708;-75
2024/02/04 06:57:59;;;;;;;11.40;3.10;;;;;;;5.19;78.78;99450.03;102316;1272;107817;-76
2024/02/04 07:00:27;;;;;;;12.30;3.30;;;;;;;5.20;78.92;99466.73;102217;1272;137543;-75
2024/02/04 07:02:54;;;;;;;7.50;2.50;;;;;;;5.20;78.96;99468.61;102203;1267;112186;-72
2024/02/04 07:05:22;;;;;;;11.20;2.40;;;;;;;5.17;78.91;99468.50;102272;1267;138823;-71
2024/02/04 07:07:49;;;;;;;8.80;2.50;;;;;;;5.18;78.80;99468.16;102631;1268;97709;-72
2024/02/04 07:10:16;;;;;;;9.90;2.30;;;;;;;5.19;78.93;99473.30;102446;1267;107918;-72
2024/02/04 07:12:43;;;;;;;10.00;4.60;;;;;;;5.23;78.97;99479.42;102281;1272;138594;-73
2024/02/04 07:15:11;;;;;;;10.70;2.60;;;;;;;5.27;78.94;99480.52;102419;1268;111195;-73
2024/02/04 07:17:38;;;;;;;8.30;2.70;;;;;;;5.29;79.03;99480.48;102334;1267;138826;-73
2024/02/04 07:20:06;;;;;;;12.00;3.10;;;;;;;5.31;78.95;99482.33;102423;1270;98317;-73
2024/02/04 07:22:34;;;;;;;12.40;3.30;;;;;;;5.36;79.03;99476.70;102466;1272;107665;-72
2024/02/04 07:25:04;;;;;;;11.30;2.80;;;;;;;5.40;78.93;99483.67;102215;1269;137559;-72
2024/02/04 07:27:32;;;;;;;10.40;2.50;;;;;;;5.46;78.77;99470.78;102762;1267;110124;-73
2024/02/04 07:29:58;;;;;;;10.30;2.70;;;;;;;5.53;78.84;99477.16;102300;1267;138701;-72
2024/02/04 07:32:25;;;;;;;8.20;2.60;;;;;;;5.60;78.60;99478.56;102440;1267;98343;-71
2024/02/04 07:34:52;;;;;;;7.80;2.90;;;;;;;5.68;78.41;99475.59;102431;1267;107797;-72
2024/02/04 07:37:19;;;;;;;12.10;3.50;;;;;;;5.75;78.21;99471.63;102558;1267;137554;-71
2024/02/04 07:39:46;;;;;;;13.00;3.20;;;;;;;5.82;78.16;99476.09;102215;1267;111803;-71
2024/02/04 07:42:13;;;;;;;10.10;2.80;;;;;;;5.92;77.99;99478.98;102311;1267;138240;-70
2024/02/04 07:44:40;;;;;;;11.10;3.10;;;;;;;5.98;77.94;99476.94;102490;1267;98356;-69
2024/02/04 07:47:07;;;;;;;10.10;2.80;;;;;;;6.03;77.43;99477.50;102432;1267;106705;-72
2024/02/04 07:49:34;;;;;;;13.60;3.00;;;;;;;6.04;77.43;99481.27;102364;1267;97831;-70
2024/02/04 07:52:01;;;;;;;12.60;3.60;;;;;;;6.03;77.40;99487.67;102324;1267;110860;-71
2024/02/04 07:54:28;;;;;;;9.60;3.00;;;;;;;5.93;77.21;99487.06;102100;1267;137979;-72
2024/02/04 07:56:55;;;;;;;9.60;2.60;;;;;;;5.87;77.23;99489.42;102436;1267;97835;-70
2024/02/04 07:59:22;;;;;;;10.50;2.70;;;;;;;5.83;77.27;99482.13;102426;1267;107932;-70
2024/02/04 08:01:49;;;;;;;9.40;2.70;;;;;;;5.77;77.32;99482.09;102931;1267;138422;-70
2024/02/04 08:04:16;;;;;;;10.30;2.90;;;;;;;5.78;77.70;99474.66;102711;1267;110244;-71
2024/02/04 08:06:44;;;;;;;9.40;2.60;;;;;;;5.77;77.54;99476.92;102366;1271;137892;-70
2024/02/04 08:09:11;;;;;;;12.70;3.10;;;;;;;5.76;77.62;99470.73;102498;1267;97816;-71
2024/02/04 08:11:38;;;;;;;12.10;3.30;;;;;;;5.74;77.62;99471.64;102372;1270;107474;-71
2024/02/04 08:14:05;;;;;;;8.30;2.50;;;;;;;5.68;77.35;99477.31;102387;1267;137992;-70
2024/02/04 08:16:32;;;;;;;9.00;2.80;;;;;;;5.61;77.67;99474.39;102488;1268;112351;-69
2024/02/04 08:19:00;;;;;;;10.30;3.00;;;;;;;5.61;77.70;99463.02;102279;1273;138124;-70
2024/02/04 08:21:27;;;;;;;9.50;2.70;;;;;;;5.60;77.84;99467.17;102443;1267;98436;-71
2024/02/04 08:23:54;;;;;;;13.10;2.70;;;;;;;5.61;77.78;99467.50;102479;1267;107615;-72
2024/02/04 08:26:20;;;;;;;12.60;2.70;;;;;;;5.63;77.85;99474.31;102372;1273;138041;-71
2024/02/04 08:28:47;;;;;;;13.10;3.20;;;;;;;5.67;77.76;99479.05;102470;1272;111776;-70
2024/02/04 08:31:14;;;;;;;12.30;3.30;;;;;;;5.70;77.81;99478.12;102152;1267;137758;-81
2024/02/04 08:33:41;;;;;;;14.00;3.30;;;;;;;5.72;78.41;99474.77;102432;1267;98159;-76
2024/02/04 08:36:10;;;;;;;11.50;3.40;;;;;;;5.75;77.84;99469.57;102294;1267;137690;-76
2024/02/04 08:38:37;;;;;;;11.00;3.10;;;;;;;5.70;77.49;99478.28;102307;1267;97781;-73
2024/02/04 08:41:04;;;;;;;12.10;3.60;;;;;;;5.68;77.76;99475.06;102306;1272;111531;-73
2024/02/04 08:43:30;;;;;;;13.20;3.60;;;;;;;5.65;77.59;99470.30;102284;1267;138429;-74
2024/02/04 08:45:57;;;;;;;12.10;3.00;;;;;;;5.62;77.34;99467.63;102413;1267;98359;-72
2024/02/04 08:48:32;;;;;;;;;;;;;;;5.59;77.24;99476.87;102299;1272;138377;-73
2024/02/04 08:50:59;;;;;;;9.90;3.00;;;;;;;5.50;77.03;99463.25;102400;1267;97841;-72
2024/02/04 08:53:26;;;;;;;13.90;3.10;;;;;;;5.44;77.29;99473.06;102404;1267;110940;-73
2024/02/04 08:55:53;;;;;;;15.70;3.80;;;;;;;5.42;77.09;99475.36;102199;1267;138344;-73
2024/02/04 08:58:20;;;;;;;19.10;3.60;;;;;;;5.42;77.20;99479.66;102355;1267;97809;-68
2024/02/04 09:00:47;;;;;;;18.20;4.00;;;;;;;5.43;77.33;99484.46;102202;1267;138692;-66
2024/02/04 09:03:14;;;;;;;10.70;2.90;;;;;;;5.44;77.05;99473.41;102232;1267;97720;-66
2024/02/04 09:05:41;;;;;;;11.80;3.30;;;;;;;5.42;77.00;99479.67;102293;1272;110644;-66
2024/02/04 09:08:10;;;;;;;12.90;3.10;;;;;;;5.41;77.04;99484.34;102286;1267;138204;-67
2024/02/04 09:10:37;;;;;;;30.60;5.60;;;;;;;5.42;77.26;99480.71;102434;1267;97745;-65
2024/02/04 09:13:05;;;;;;;12.20;3.50;;;;;;;5.42;77.12;99488.63;102281;1267;139059;-66
2024/02/04 09:15:32;;;;;;;14.70;3.50;;;;;;;5.41;77.10;99484.69;102502;1267;97824;-65
2024/02/04 09:17:59;;;;;;;12.60;3.50;;;;;;;5.41;76.68;99483.66;102531;1271;110756;-66
2024/02/04 09:20:26;;;;;;;12.90;3.80;;;;;;;5.39;77.08;99488.35;102299;1267;138084;-66
2024/02/04 09:22:53;;;;;;;10.60;3.20;;;;;;;5.40;77.11;99479.03;102278;1267;97841;-65
2024/02/04 09:25:20;;;;;;;10.30;3.10;;;;;;;5.40;77.24;99484.37;103016;1267;138398;-66
2024/02/04 09:27:47;;;;;;;17.30;6.00;;;;;;;5.41;77.09;99474.17;102582;1267;97802;-67
2024/02/04 09:30:16;;;;;;;17.60;6.00;;;;;;;5.44;77.04;99472.21;102367;1267;138816;-65
2024/02/04 09:32:43;;;;;;;12.50;3.70;;;;;;;5.44;76.96;99480.14;102297;1268;107761;-65
2024/02/04 09:35:11;;;;;;;13.10;3.50;;;;;;;5.48;76.83;99477.46;102282;1267;97978;-69
2024/02/04 09:37:38;;;;;;;13.70;3.40;;;;;;;5.51;76.88;99480.48;102278;1267;138114;-67
2024/02/04 09:40:06;;;;;;;14.60;3.40;;;;;;;5.52;76.86;99478.92;102414;1271;97828;-67
2024/02/04 09:42:33;;;;;;;14.60;3.50;;;;;;;5.51;76.65;99476.52;102134;1267;138842;-66
2024/02/04 09:45:00;;;;;;;13.50;3.30;;;;;;;5.50;76.67;99478.77;101450;1272;1003158;-67
2024/02/04 09:47:28;;;;;;;14.60;3.80;;;;;;;5.50;76.76;99472.22;102442;1270;98362;-65
2024/02/04 09:49:56;;;;;;;14.40;3.90;;;;;;;5.52;76.86;99471.84;102406;1267;138190;-64
2024/02/04 09:52:30;;;;;;;18.30;4.30;;;;;;;5.55;76.85;99476.77;102480;1272;97723;-65
2024/02/04 09:55:01;;;;;;;13.40;4.30;;;;;;;5.56;76.87;99463.45;102331;1270;138368;-66
2024/02/04 09:57:29;;;;;;;10.80;3.10;;;;;;;5.59;76.93;99463.40;102377;1267;108029;-65
2024/02/04 09:59:56;;;;;;;11.20;3.40;;;;;;;5.62;76.96;99458.31;102519;1267;97846;-65
2024/02/04 10:02:24;;;;;;;16.40;3.90;;;;;;;5.65;76.83;99448.24;102292;1267;138176;-65
2024/02/04 10:04:51;;;;;;;13.80;3.60;;;;;;;5.65;76.74;99443.08;102413;1267;97894;-66
2024/02/04 10:07:19;;;;;;;13.20;3.60;;;;;;;5.65;76.61;99430.83;102256;1272;138161;-65
2024/02/04 10:09:47;;;;;;;16.30;4.20;;;;;;;5.66;76.57;99428.72;102388;1267;107063;-65
2024/02/04 10:12:14;;;;;;;16.70;3.80;;;;;;;5.65;76.48;99431.69;102429;1267;138531;-63
2024/02/04 10:14:41;;;;;;;11.80;3.60;;;;;;;5.66;76.58;99428.02;102438;1272;107304;-64
2024/02/04 10:17:09;;;;;;;14.30;3.80;;;;;;;5.68;77.44;99428.15;102405;1267;97866;-64
2024/02/04 10:19:36;;;;;;;14.10;3.80;;;;;;;5.81;79.26;99420.75;102410;1272;139185;-64
2024/02/04 10:22:04;;;;;;;14.90;3.60;;;;;;;6.01;79.96;99416.11;102550;1273;108069;-66
2024/02/04 10:24:32;;;;;;;9.90;3.60;;;;;;;6.18;77.36;99412.05;102327;1267;138507;-65
2024/02/04 10:26:59;;;;;;;14.90;4.10;;;;;;;6.09;76.38;99408.48;102374;1273;108860;-66
2024/02/04 10:29:26;;;;;;;15.00;4.30;;;;;;;6.07;76.26;99409.39;102279;1267;97723;-67
2024/02/04 10:31:57;;;;;;;15.90;3.80;;;;;;;6.03;76.22;99410.53;99230;1267;1003830;-66
2024/02/04 10:34:26;;;;;;;10.70;3.90;;;;;;;6.00;76.27;99411.12;102408;1267;108056;-67
2024/02/04 10:36:54;;;;;;;14.20;5.00;;;;;;;5.97;76.43;99403.98;100828;1267;1003413;-66
2024/02/04 10:39:20;;;;;;;15.50;3.90;;;;;;;5.94;76.32;99391.12;102387;1267;107313;-66
2024/02/04 10:41:52;;;;;;;16.60;4.40;;;;;;;5.92;76.36;99388.73;102529;1272;98066;-65
2024/02/04 10:44:22;;;;;;;11.60;3.30;;;;;;;5.93;76.62;99385.97;102407;1267;138382;-65
2024/02/04 10:46:50;;;;;;;13.40;3.70;;;;;;;5.93;76.44;99370.42;102369;1267;106712;-64
2024/02/04 10:49:19;;;;;;;11.50;3.60;;;;;;;5.92;76.51;99368.90;102723;1267;138438;-63
2024/02/04 10:51:48;;;;;;;20.80;4.40;;;;;;;5.87;76.51;99362.45;102599;1267;107778;-65
2024/02/04 10:54:17;;;;;;;13.50;3.80;;;;;;;5.84;76.57;99349.42;102138;1267;138413;-65
2024/02/04 10:56:46;;;;;;;13.70;3.60;;;;;;;5.86;76.61;99357.98;102648;1267;110441;-65
2024/02/04 10:59:17;;;;;;;12.40;3.40;;;;;;;5.88;76.68;99353.80;102386;1268;107030;-63
2024/02/04 11:01:48;;;;;;;15.50;3.30;;;;;;;5.86;76.84;99348.52;102621;1267;138398;-63
2024/02/04 11:04:17;;;;;;;14.00;3.50;;;;;;;5.87;77.05;99352.98;102479;1267;109262;-63
2024/02/04 11:06:45;;;;;;;12.40;3.80;;;;;;;5.87;77.34;99353.64;102256;1272;138995;-64
2024/02/04 11:09:15;;;;;;;17.90;3.70;;;;;;;5.87;77.46;99354.00;102470;1267;111463;-64
2024/02/04 11:11:42;;;;;;;15.50;3.40;;;;;;;5.85;77.67;99344.04;102458;1267;107959;-63
2024/02/04 11:14:14;;;;;;;18.20;4.00;;;;;;;5.82;77.85;99345.17;102309;1267;139191;-65
2024/02/04 11:17:02;;;;;;;13.90;3.40;;;;;;;5.80;78.27;99345.23;102298;1267;108355;-64
2024/02/04 11:19:44;;;;;;;13.80;3.90;;;;;;;5.79;78.45;99340.96;102809;1272;139263;-63
2024/02/04 11:22:47;;;;;;;12.30;3.40;;;;;;;5.74;78.59;99339.34;102452;1272;111670;-65
2024/02/04 11:25:42;;;;;;;15.40;3.50;;;;;;;5.72;78.77;99334.39;102245;1272;138393;-64